sensor_id;sensor_type;location;lat;lon;timestamp;temperature;humidity
40589;DHT22;26297;49.450;6.640;2022-08-19T03:01:02;21.00;99.90
40589;DHT22;26297;49.450;6.640;2022-08-19T03:04:07;21.10;99.90
40589;DHT22;26297;49.450;6.640;2022-08-19T03:07:14;21.20;99.90
40589;DHT22;26297;49.450;6.640;2022-08-19T03:10:17;21.20;99.90
40589;DHT22;26297;49.450;6.640;2022-08-19T03:13:21;21.20;99.90
40589;DHT22;26297;49.450;6.640;2022-08-19T03:16:26;21.30;99.90
40589;DHT22;26297;49.450;6.640;2022-08-19T03:19:31;21.30;99.90
40589;DHT22;26297;49.450;6.640;2022-08-19T03:22:34;21.20;99.90
40589;DHT22;26297;49.450;6.640;2022-08-19T03:25:39;21.10;99.90
40589;DHT22;26297;49.450;6.640;2022-08-19T03:28:45;21.20;99.90
40589;DHT22;26297;49.450;6.640;2022-08-19T03:31:53;21.10;99.90
40589;DHT22;26297;49.450;6.640;2022-08-19T03:34:57;21.00;99.90
40589;DHT22;26297;49.450;6.640;2022-08-19T03:38:00;20.90;99.90
40589;DHT22;26297;49.450;6.640;2022-08-19T03:41:10;20.90;99.90
40589;DHT22;26297;49.450;6.640;2022-08-19T03:44:16;20.90;99.90
40589;DHT22;26297;49.450;6.640;2022-08-19T03:47:23;20.80;99.90
40589;DHT22;26297;49.450;6.640;2022-08-19T03:50:27;20.80;99.90
40589;DHT22;26297;49.450;6.640;2022-08-19T03:53:32;20.80;99.90
40589;DHT22;26297;49.450;6.640;2022-08-19T03:56:37;20.80;99.90
40589;DHT22;26297;49.450;6.640;2022-08-19T03:59:41;20.90;99.90
40589;DHT22;26297;49.450;6.640;2022-08-19T04:02:44;20.80;99.90
40589;DHT22;26297;49.450;6.640;2022-08-19T04:05:47;20.80;99.90
40589;DHT22;26297;49.450;6.640;2022-08-19T04:08:52;20.80;99.90
40589;DHT22;26297;49.450;6.640;2022-08-19T04:11:57;20.80;99.90
40589;DHT22;26297;49.450;6.640;2022-08-19T04:15:01;20.70;99.90
40589;DHT22;26297;49.450;6.640;2022-08-19T04:18:04;20.80;99.90
40589;DHT22;26297;49.450;6.640;2022-08-19T04:21:08;20.70;99.90
40589;DHT22;26297;49.450;6.640;2022-08-19T04:24:12;20.70;99.90
40589;DHT22;26297;49.450;6.640;2022-08-19T04:27:15;20.80;99.90
40589;DHT22;26297;49.450;6.640;2022-08-19T04:30:19;20.70;99.90
40589;DHT22;26297;49.450;6.640;2022-08-19T04:33:25;20.70;99.90
40589;DHT22;26297;49.450;6.640;2022-08-19T04:36:35;20.70;99.90
40589;DHT22;26297;49.450;6.640;2022-08-19T04:39:39;20.70;99.90
40589;DHT22;26297;49.450;6.640;2022-08-19T04:43:01;20.70;99.90
40589;DHT22;26297;49.450;6.640;2022-08-19T04:46:06;20.70;99.90
40589;DHT22;26297;49.450;6.640;2022-08-19T04:49:09;20.60;99.90
40589;DHT22;26297;49.450;6.640;2022-08-19T04:52:13;20.60;99.90
40589;DHT22;26297;49.450;6.640;2022-08-19T04:55:16;20.60;99.90
40589;DHT22;26297;49.450;6.640;2022-08-19T04:58:20;20.60;99.90
40589;DHT22;26297;49.450;6.640;2022-08-19T05:01:26;20.60;99.90
40589;DHT22;26297;49.450;6.640;2022-08-19T05:04:31;20.50;99.90
40589;DHT22;26297;49.450;6.640;2022-08-19T05:07:35;20.50;99.90
40589;DHT22;26297;49.450;6.640;2022-08-19T05:10:39;20.50;99.90
40589;DHT22;26297;49.450;6.640;2022-08-19T05:13:44;20.50;99.90
40589;DHT22;26297;49.450;6.640;2022-08-19T05:16:47;20.40;99.90
40589;DHT22;26297;49.450;6.640;2022-08-19T05:19:50;20.40;99.90
40589;DHT22;26297;49.450;6.640;2022-08-19T05:23:12;20.50;99.90
40589;DHT22;26297;49.450;6.640;2022-08-19T05:26:18;20.50;99.90
40589;DHT22;26297;49.450;6.640;2022-08-19T05:29:21;20.50;99.90
40589;DHT22;26297;49.450;6.640;2022-08-19T05:32:25;20.60;99.90
40589;DHT22;26297;49.450;6.640;2022-08-19T05:35:29;20.60;99.90
40589;DHT22;26297;49.450;6.640;2022-08-19T05:38:34;20.60;99.90
40589;DHT22;26297;49.450;6.640;2022-08-19T05:41:49;20.60;99.90
40589;DHT22;26297;49.450;6.640;2022-08-19T05:44:53;20.70;99.90
40589;DHT22;26297;49.450;6.640;2022-08-19T05:47:57;20.70;99.90
40589;DHT22;26297;49.450;6.640;2022-08-19T05:51:06;20.70;99.90
40589;DHT22;26297;49.450;6.640;2022-08-19T05:54:09;20.70;99.90
40589;DHT22;26297;49.450;6.640;2022-08-19T05:57:15;20.70;99.90
40589;DHT22;26297;49.450;6.640;2022-08-19T06:00:18;20.70;99.90
40589;DHT22;26297;49.450;6.640;2022-08-19T06:03:21;20.70;99.90
40589;DHT22;26297;49.450;6.640;2022-08-19T06:06:25;20.70;99.90
40589;DHT22;26297;49.450;6.640;2022-08-19T06:09:28;20.70;99.90
40589;DHT22;26297;49.450;6.640;2022-08-19T06:12:33;20.70;99.90
40589;DHT22;26297;49.450;6.640;2022-08-19T06:15:37;20.80;99.90
40589;DHT22;26297;49.450;6.640;2022-08-19T06:18:40;20.80;99.90
40589;DHT22;26297;49.450;6.640;2022-08-19T06:21:45;20.80;99.90
40589;DHT22;26297;49.450;6.640;2022-08-19T06:24:49;20.80;99.90
40589;DHT22;26297;49.450;6.640;2022-08-19T06:27:55;20.90;99.90
40589;DHT22;26297;49.450;6.640;2022-08-19T06:30:58;20.90;99.90
40589;DHT22;26297;49.450;6.640;2022-08-19T06:34:03;20.90;99.90
40589;DHT22;26297;49.450;6.640;2022-08-19T06:37:07;20.90;99.90
40589;DHT22;26297;49.450;6.640;2022-08-19T06:40:11;20.90;99.90
40589;DHT22;26297;49.450;6.640;2022-08-19T06:43:15;20.90;99.90
40589;DHT22;26297;49.450;6.640;2022-08-19T06:46:18;21.00;99.90
40589;DHT22;26297;49.450;6.640;2022-08-19T06:49:23;21.00;99.90
40589;DHT22;26297;49.450;6.640;2022-08-19T06:52:32;21.10;99.90
40589;DHT22;26297;49.450;6.640;2022-08-19T06:55:36;21.10;99.90
40589;DHT22;26297;49.450;6.640;2022-08-19T06:58:40;21.10;99.90
40589;DHT22;26297;49.450;6.640;2022-08-19T07:01:47;21.20;99.90
40589;DHT22;26297;49.450;6.640;2022-08-19T07:04:50;21.20;99.90
40589;DHT22;26297;49.450;6.640;2022-08-19T07:07:54;21.20;99.90
40589;DHT22;26297;49.450;6.640;2022-08-19T07:10:57;21.20;99.90
40589;DHT22;26297;49.450;6.640;2022-08-19T07:14:01;21.30;99.90
40589;DHT22;26297;49.450;6.640;2022-08-19T07:17:09;21.30;99.90
40589;DHT22;26297;49.450;6.640;2022-08-19T07:20:13;21.30;99.90
40589;DHT22;26297;49.450;6.640;2022-08-19T07:23:17;21.30;99.90
40589;DHT22;26297;49.450;6.640;2022-08-19T07:26:31;21.30;99.90
40589;DHT22;26297;49.450;6.640;2022-08-19T07:29:35;21.30;99.90
40589;DHT22;26297;49.450;6.640;2022-08-19T07:32:40;21.40;99.90
40589;DHT22;26297;49.450;6.640;2022-08-19T07:35:44;21.40;99.90
40589;DHT22;26297;49.450;6.640;2022-08-19T07:38:49;21.40;99.90
40589;DHT22;26297;49.450;6.640;2022-08-19T07:41:54;21.50;99.90
40589;DHT22;26297;49.450;6.640;2022-08-19T07:44:58;21.50;99.90
40589;DHT22;26297;49.450;6.640;2022-08-19T07:48:01;21.50;99.90
40589;DHT22;26297;49.450;6.640;2022-08-19T07:51:06;21.50;99.90
40589;DHT22;26297;49.450;6.640;2022-08-19T07:54:11;21.50;99.90
40589;DHT22;26297;49.450;6.640;2022-08-19T07:57:15;21.50;99.90
40589;DHT22;26297;49.450;6.640;2022-08-19T08:00:18;21.60;99.90
40589;DHT22;26297;49.450;6.640;2022-08-19T08:03:22;21.60;99.90
40589;DHT22;26297;49.450;6.640;2022-08-19T08:06:45;21.60;99.90
40589;DHT22;26297;49.450;6.640;2022-08-19T08:10:07;21.60;99.90
40589;DHT22;26297;49.450;6.640;2022-08-19T08:13:10;21.70;99.90
40589;DHT22;26297;49.450;6.640;2022-08-19T08:16:13;21.70;99.90
40589;DHT22;26297;49.450;6.640;2022-08-19T08:19:18;21.70;99.90
40589;DHT22;26297;49.450;6.640;2022-08-19T08:22:22;21.70;99.90
40589;DHT22;26297;49.450;6.640;2022-08-19T08:25:45;21.70;99.90
40589;DHT22;26297;49.450;6.640;2022-08-19T08:28:49;21.80;99.90
40589;DHT22;26297;49.450;6.640;2022-08-19T08:31:52;21.80;99.90
40589;DHT22;26297;49.450;6.640;2022-08-19T08:34:56;21.80;99.90
40589;DHT22;26297;49.450;6.640;2022-08-19T08:37:59;21.80;99.90
40589;DHT22;26297;49.450;6.640;2022-08-19T08:44:52;22.00;99.90
40589;DHT22;26297;49.450;6.640;2022-08-19T08:48:00;22.00;99.90
40589;DHT22;26297;49.450;6.640;2022-08-19T08:51:07;22.00;99.90
40589;DHT22;26297;49.450;6.640;2022-08-19T08:54:14;22.00;99.90
40589;DHT22;26297;49.450;6.640;2022-08-19T08:57:51;22.00;99.90
40589;DHT22;26297;49.450;6.640;2022-08-19T09:00:57;22.10;99.90
40589;DHT22;26297;49.450;6.640;2022-08-19T09:04:04;22.10;99.90
40589;DHT22;26297;49.450;6.640;2022-08-19T09:11:05;22.20;99.90
40589;DHT22;26297;49.450;6.640;2022-08-19T09:14:32;22.20;99.90
40589;DHT22;26297;49.450;6.640;2022-08-19T09:17:36;22.20;99.90
40589;DHT22;26297;49.450;6.640;2022-08-19T09:20:41;22.20;99.90
40589;DHT22;26297;49.450;6.640;2022-08-19T09:23:44;22.30;99.90
40589;DHT22;26297;49.450;6.640;2022-08-19T09:26:47;22.30;99.90
40589;DHT22;26297;49.450;6.640;2022-08-19T09:29:52;22.30;99.90
40589;DHT22;26297;49.450;6.640;2022-08-19T09:32:56;22.30;99.90
40589;DHT22;26297;49.450;6.640;2022-08-19T09:36:07;22.30;99.90
40589;DHT22;26297;49.450;6.640;2022-08-19T09:39:10;22.30;99.90
40589;DHT22;26297;49.450;6.640;2022-08-19T09:42:14;22.40;99.90
40589;DHT22;26297;49.450;6.640;2022-08-19T09:45:20;22.40;99.90
40589;DHT22;26297;49.450;6.640;2022-08-19T09:48:24;22.40;99.90
40589;DHT22;26297;49.450;6.640;2022-08-19T09:51:28;22.40;99.90
40589;DHT22;26297;49.450;6.640;2022-08-19T09:54:32;22.40;99.90
40589;DHT22;26297;49.450;6.640;2022-08-19T09:57:35;22.50;99.90
40589;DHT22;26297;49.450;6.640;2022-08-19T10:00:39;22.50;99.90
40589;DHT22;26297;49.450;6.640;2022-08-19T10:03:41;22.50;99.90
40589;DHT22;26297;49.450;6.640;2022-08-19T10:06:44;22.50;99.90
40589;DHT22;26297;49.450;6.640;2022-08-19T10:09:50;22.50;99.90
40589;DHT22;26297;49.450;6.640;2022-08-19T10:12:53;22.60;99.90
40589;DHT22;26297;49.450;6.640;2022-08-19T10:16:04;22.60;99.90
40589;DHT22;26297;49.450;6.640;2022-08-19T10:19:08;22.70;99.90
40589;DHT22;26297;49.450;6.640;2022-08-19T10:22:11;22.60;99.90
40589;DHT22;26297;49.450;6.640;2022-08-19T10:25:16;22.70;99.90
40589;DHT22;26297;49.450;6.640;2022-08-19T10:28:20;22.70;99.90
40589;DHT22;26297;49.450;6.640;2022-08-19T10:31:26;22.70;99.90
40589;DHT22;26297;49.450;6.640;2022-08-19T10:34:31;22.70;99.90
40589;DHT22;26297;49.450;6.640;2022-08-19T10:37:36;22.70;99.90
40589;DHT22;26297;49.450;6.640;2022-08-19T10:40:39;22.80;99.90
40589;DHT22;26297;49.450;6.640;2022-08-19T10:43:42;22.80;99.90
40589;DHT22;26297;49.450;6.640;2022-08-19T10:46:47;22.80;99.90
40589;DHT22;26297;49.450;6.640;2022-08-19T10:49:51;22.80;99.90
40589;DHT22;26297;49.450;6.640;2022-08-19T10:53:14;22.80;99.90
40589;DHT22;26297;49.450;6.640;2022-08-19T10:56:17;22.80;99.90
40589;DHT22;26297;49.450;6.640;2022-08-19T10:59:39;22.80;99.90
40589;DHT22;26297;49.450;6.640;2022-08-19T11:02:43;22.80;99.90
40589;DHT22;26297;49.450;6.640;2022-08-19T11:05:47;22.80;99.90
40589;DHT22;26297;49.450;6.640;2022-08-19T11:08:59;22.80;99.90
40589;DHT22;26297;49.450;6.640;2022-08-19T11:12:03;22.90;99.90
40589;DHT22;26297;49.450;6.640;2022-08-19T11:15:08;22.90;99.90
40589;DHT22;26297;49.450;6.640;2022-08-19T11:18:14;22.90;99.90
40589;DHT22;26297;49.450;6.640;2022-08-19T11:21:22;23.00;99.90
40589;DHT22;26297;49.450;6.640;2022-08-19T11:24:26;23.00;99.90
40589;DHT22;26297;49.450;6.640;2022-08-19T11:27:30;23.00;99.90
40589;DHT22;26297;49.450;6.640;2022-08-19T11:30:34;23.00;99.90
40589;DHT22;26297;49.450;6.640;2022-08-19T11:33:37;23.10;99.90
40589;DHT22;26297;49.450;6.640;2022-08-19T11:36:42;23.10;99.90
40589;DHT22;26297;49.450;6.640;2022-08-19T11:39:47;23.10;99.90
40589;DHT22;26297;49.450;6.640;2022-08-19T11:42:50;23.20;99.90
40589;DHT22;26297;49.450;6.640;2022-08-19T11:46:04;23.20;99.90
40589;DHT22;26297;49.450;6.640;2022-08-19T11:49:09;23.20;99.90
40589;DHT22;26297;49.450;6.640;2022-08-19T11:52:12;23.30;99.90
40589;DHT22;26297;49.450;6.640;2022-08-19T11:55:15;23.40;99.90
40589;DHT22;26297;49.450;6.640;2022-08-19T11:58:19;23.40;99.90
40589;DHT22;26297;49.450;6.640;2022-08-19T12:01:23;23.30;99.90
40589;DHT22;26297;49.450;6.640;2022-08-19T12:04:27;23.30;99.90
40589;DHT22;26297;49.450;6.640;2022-08-19T12:07:30;23.30;99.90
40589;DHT22;26297;49.450;6.640;2022-08-19T12:10:36;23.40;99.90
40589;DHT22;26297;49.450;6.640;2022-08-19T12:13:40;23.30;99.90
40589;DHT22;26297;49.450;6.640;2022-08-19T12:16:45;23.40;99.90
40589;DHT22;26297;49.450;6.640;2022-08-19T12:19:49;23.50;99.40
40589;DHT22;26297;49.450;6.640;2022-08-19T12:22:52;23.50;98.30
40589;DHT22;26297;49.450;6.640;2022-08-19T12:25:56;23.50;97.90
40589;DHT22;26297;49.450;6.640;2022-08-19T12:29:00;23.50;98.70
40589;DHT22;26297;49.450;6.640;2022-08-19T12:32:03;23.60;98.90
40589;DHT22;26297;49.450;6.640;2022-08-19T12:35:07;23.60;97.00
40589;DHT22;26297;49.450;6.640;2022-08-19T12:38:15;23.60;96.60
40589;DHT22;26297;49.450;6.640;2022-08-19T12:41:18;23.70;96.50
40589;DHT22;26297;49.450;6.640;2022-08-19T12:44:23;23.70;95.40
40589;DHT22;26297;49.450;6.640;2022-08-19T12:47:26;23.80;96.20
40589;DHT22;26297;49.450;6.640;2022-08-19T12:50:30;23.80;93.70
40589;DHT22;26297;49.450;6.640;2022-08-19T12:53:33;23.80;94.00
40589;DHT22;26297;49.450;6.640;2022-08-19T12:56:37;23.80;94.00
40589;DHT22;26297;49.450;6.640;2022-08-19T12:59:40;23.90;92.50
40589;DHT22;26297;49.450;6.640;2022-08-19T13:02:46;23.80;92.50
40589;DHT22;26297;49.450;6.640;2022-08-19T13:05:50;23.70;93.60
40589;DHT22;26297;49.450;6.640;2022-08-19T13:08:55;23.70;93.10
40589;DHT22;26297;49.450;6.640;2022-08-19T13:11:58;23.70;90.30
40589;DHT22;26297;49.450;6.640;2022-08-19T13:15:05;23.60;90.10
40589;DHT22;26297;49.450;6.640;2022-08-19T13:18:09;23.70;90.50
40589;DHT22;26297;49.450;6.640;2022-08-19T13:21:13;23.70;88.80
40589;DHT22;26297;49.450;6.640;2022-08-19T13:24:17;23.70;86.90
40589;DHT22;26297;49.450;6.640;2022-08-19T13:27:20;23.80;90.10
40589;DHT22;26297;49.450;6.640;2022-08-19T13:30:23;23.80;90.10
40589;DHT22;26297;49.450;6.640;2022-08-19T13:33:45;23.70;90.60
40589;DHT22;26297;49.450;6.640;2022-08-19T13:36:48;23.70;90.50
40589;DHT22;26297;49.450;6.640;2022-08-19T13:39:51;23.70;90.30
40589;DHT22;26297;49.450;6.640;2022-08-19T13:42:55;23.80;88.00
40589;DHT22;26297;49.450;6.640;2022-08-19T13:45:58;23.80;88.50
40589;DHT22;26297;49.450;6.640;2022-08-19T13:49:02;23.80;90.10
40589;DHT22;26297;49.450;6.640;2022-08-19T13:52:05;23.90;88.60
40589;DHT22;26297;49.450;6.640;2022-08-19T13:55:10;23.90;88.20
40589;DHT22;26297;49.450;6.640;2022-08-19T13:58:13;23.90;89.30
40589;DHT22;26297;49.450;6.640;2022-08-19T14:01:21;24.00;86.60
40589;DHT22;26297;49.450;6.640;2022-08-19T14:04:24;24.10;84.30
40589;DHT22;26297;49.450;6.640;2022-08-19T14:07:27;24.10;85.50
40589;DHT22;26297;49.450;6.640;2022-08-19T14:10:30;24.10;86.70
40589;DHT22;26297;49.450;6.640;2022-08-19T14:13:34;24.10;84.40
40589;DHT22;26297;49.450;6.640;2022-08-19T14:16:38;24.20;86.60
40589;DHT22;26297;49.450;6.640;2022-08-19T14:19:41;24.10;87.30
40589;DHT22;26297;49.450;6.640;2022-08-19T14:22:46;24.10;87.80
40589;DHT22;26297;49.450;6.640;2022-08-19T14:25:50;24.10;84.40
40589;DHT22;26297;49.450;6.640;2022-08-19T14:28:53;24.10;84.80
40589;DHT22;26297;49.450;6.640;2022-08-19T14:32:00;24.10;81.00
40589;DHT22;26297;49.450;6.640;2022-08-19T14:35:04;24.20;81.60
40589;DHT22;26297;49.450;6.640;2022-08-19T14:38:15;24.10;87.30
40589;DHT22;26297;49.450;6.640;2022-08-19T14:41:23;24.10;89.10
40589;DHT22;26297;49.450;6.640;2022-08-19T14:44:26;24.10;91.00
40589;DHT22;26297;49.450;6.640;2022-08-19T14:47:30;24.10;90.80
40589;DHT22;26297;49.450;6.640;2022-08-19T14:50:34;24.20;91.90
40589;DHT22;26297;49.450;6.640;2022-08-19T14:53:38;24.30;91.60
40589;DHT22;26297;49.450;6.640;2022-08-19T14:56:42;24.30;93.10
40589;DHT22;26297;49.450;6.640;2022-08-19T14:59:46;24.30;93.10
40589;DHT22;26297;49.450;6.640;2022-08-19T15:02:50;24.20;93.50
40589;DHT22;26297;49.450;6.640;2022-08-19T15:05:54;24.20;95.70
40589;DHT22;26297;49.450;6.640;2022-08-19T15:08:59;24.20;95.00
40589;DHT22;26297;49.450;6.640;2022-08-19T15:12:03;24.20;94.20
40589;DHT22;26297;49.450;6.640;2022-08-19T15:15:09;24.20;94.30
40589;DHT22;26297;49.450;6.640;2022-08-19T15:18:15;24.20;95.00
40589;DHT22;26297;49.450;6.640;2022-08-19T15:21:18;24.20;95.40
40589;DHT22;26297;49.450;6.640;2022-08-19T15:24:22;24.20;95.50
40589;DHT22;26297;49.450;6.640;2022-08-19T15:27:27;24.20;95.90
40589;DHT22;26297;49.450;6.640;2022-08-19T15:30:30;24.10;95.10
40589;DHT22;26297;49.450;6.640;2022-08-19T15:33:36;24.10;95.20
40589;DHT22;26297;49.450;6.640;2022-08-19T15:36:39;24.10;95.90
40589;DHT22;26297;49.450;6.640;2022-08-19T15:39:42;24.10;95.90
40589;DHT22;26297;49.450;6.640;2022-08-19T15:42:49;24.00;97.20
40589;DHT22;26297;49.450;6.640;2022-08-19T15:45:51;24.00;97.50
40589;DHT22;26297;49.450;6.640;2022-08-19T15:48:55;24.00;97.50
40589;DHT22;26297;49.450;6.640;2022-08-19T15:51:59;24.00;98.20
40589;DHT22;26297;49.450;6.640;2022-08-19T15:55:04;23.90;97.30
40589;DHT22;26297;49.450;6.640;2022-08-19T15:58:12;23.90;97.70
40589;DHT22;26297;49.450;6.640;2022-08-19T16:01:34;23.90;98.40
40589;DHT22;26297;49.450;6.640;2022-08-19T16:04:56;23.90;98.50
40589;DHT22;26297;49.450;6.640;2022-08-19T16:08:18;23.90;98.60
40589;DHT22;26297;49.450;6.640;2022-08-19T16:11:25;24.00;99.40
40589;DHT22;26297;49.450;6.640;2022-08-19T16:14:33;24.00;99.00
40589;DHT22;26297;49.450;6.640;2022-08-19T16:17:37;24.00;99.60
40589;DHT22;26297;49.450;6.640;2022-08-19T16:20:40;24.00;99.50
40589;DHT22;26297;49.450;6.640;2022-08-19T16:23:44;24.00;99.70
40589;DHT22;26297;49.450;6.640;2022-08-19T16:26:48;24.00;99.90
40589;DHT22;26297;49.450;6.640;2022-08-19T16:29:52;23.90;99.90
40589;DHT22;26297;49.450;6.640;2022-08-19T16:32:55;23.90;99.90
40589;DHT22;26297;49.450;6.640;2022-08-19T16:35:58;23.90;99.90
40589;DHT22;26297;49.450;6.640;2022-08-19T16:39:01;23.90;99.90
40589;DHT22;26297;49.450;6.640;2022-08-19T16:42:07;23.90;99.90
40589;DHT22;26297;49.450;6.640;2022-08-19T16:45:10;23.90;99.90
40589;DHT22;26297;49.450;6.640;2022-08-19T16:48:13;23.80;99.90
40589;DHT22;26297;49.450;6.640;2022-08-19T16:51:16;23.70;99.90
40589;DHT22;26297;49.450;6.640;2022-08-19T16:54:20;23.70;99.90
40589;DHT22;26297;49.450;6.640;2022-08-19T16:57:23;23.60;99.90
40589;DHT22;26297;49.450;6.640;2022-08-19T17:00:26;23.60;99.90
40589;DHT22;26297;49.450;6.640;2022-08-19T17:03:29;23.70;99.90
40589;DHT22;26297;49.450;6.640;2022-08-19T17:06:32;23.60;99.90
40589;DHT22;26297;49.450;6.640;2022-08-19T17:09:40;23.60;99.90
40589;DHT22;26297;49.450;6.640;2022-08-19T17:12:44;23.60;99.90
40589;DHT22;26297;49.450;6.640;2022-08-19T17:15:47;23.60;99.90
40589;DHT22;26297;49.450;6.640;2022-08-19T17:18:52;23.60;99.90
40589;DHT22;26297;49.450;6.640;2022-08-19T17:21:55;23.60;99.90
40589;DHT22;26297;49.450;6.640;2022-08-19T17:24:59;23.60;99.90
40589;DHT22;26297;49.450;6.640;2022-08-19T17:28:11;23.60;99.90
40589;DHT22;26297;49.450;6.640;2022-08-19T17:31:15;23.60;99.90
40589;DHT22;26297;49.450;6.640;2022-08-19T17:34:21;23.50;99.90
40589;DHT22;26297;49.450;6.640;2022-08-19T17:37:27;23.50;99.90
40589;DHT22;26297;49.450;6.640;2022-08-19T17:40:34;23.50;99.90
40589;DHT22;26297;49.450;6.640;2022-08-19T17:43:38;23.50;99.90
40589;DHT22;26297;49.450;6.640;2022-08-19T17:46:44;23.50;99.90
40589;DHT22;26297;49.450;6.640;2022-08-19T17:49:48;23.50;99.90
40589;DHT22;26297;49.450;6.640;2022-08-19T17:52:51;23.50;99.90
40589;DHT22;26297;49.450;6.640;2022-08-19T17:55:54;23.50;99.90
40589;DHT22;26297;49.450;6.640;2022-08-19T17:58:59;23.50;99.90
40589;DHT22;26297;49.450;6.640;2022-08-19T18:02:03;23.40;99.90
40589;DHT22;26297;49.450;6.640;2022-08-19T18:05:06;23.40;99.90
40589;DHT22;26297;49.450;6.640;2022-08-19T18:08:10;23.40;99.90
40589;DHT22;26297;49.450;6.640;2022-08-19T18:11:15;23.40;99.90
40589;DHT22;26297;49.450;6.640;2022-08-19T18:14:20;23.40;99.90
40589;DHT22;26297;49.450;6.640;2022-08-19T18:17:30;23.40;99.90
40589;DHT22;26297;49.450;6.640;2022-08-19T18:20:34;23.40;99.90
40589;DHT22;26297;49.450;6.640;2022-08-19T18:23:37;23.30;99.90
40589;DHT22;26297;49.450;6.640;2022-08-19T18:26:40;23.30;99.90
40589;DHT22;26297;49.450;6.640;2022-08-19T18:29:47;23.30;99.90
40589;DHT22;26297;49.450;6.640;2022-08-19T18:32:52;23.40;99.90
40589;DHT22;26297;49.450;6.640;2022-08-19T18:35:58;23.40;99.90
40589;DHT22;26297;49.450;6.640;2022-08-19T18:39:02;23.40;99.90
40589;DHT22;26297;49.450;6.640;2022-08-19T18:42:24;23.40;99.90
40589;DHT22;26297;49.450;6.640;2022-08-19T18:45:46;23.30;99.90
40589;DHT22;26297;49.450;6.640;2022-08-19T18:49:12;23.30;99.90
40589;DHT22;26297;49.450;6.640;2022-08-19T18:52:18;23.30;99.90
40589;DHT22;26297;49.450;6.640;2022-08-19T18:55:21;23.30;99.90
40589;DHT22;26297;49.450;6.640;2022-08-19T18:58:27;23.20;99.90
40589;DHT22;26297;49.450;6.640;2022-08-19T19:01:38;23.20;99.90
40589;DHT22;26297;49.450;6.640;2022-08-19T19:04:41;23.20;99.90
40589;DHT22;26297;49.450;6.640;2022-08-19T19:07:45;23.10;99.90
40589;DHT22;26297;49.450;6.640;2022-08-19T19:10:48;23.20;99.90
40589;DHT22;26297;49.450;6.640;2022-08-19T19:13:52;23.20;99.90
40589;DHT22;26297;49.450;6.640;2022-08-19T19:16:57;23.10;99.90
40589;DHT22;26297;49.450;6.640;2022-08-19T19:20:01;23.10;99.90
40589;DHT22;26297;49.450;6.640;2022-08-19T19:23:04;23.10;99.90
40589;DHT22;26297;49.450;6.640;2022-08-19T19:26:09;23.10;99.90
40589;DHT22;26297;49.450;6.640;2022-08-19T19:29:16;23.00;99.90
40589;DHT22;26297;49.450;6.640;2022-08-19T19:32:28;23.10;99.90
40589;DHT22;26297;49.450;6.640;2022-08-19T19:35:34;23.10;99.90
40589;DHT22;26297;49.450;6.640;2022-08-19T19:38:41;23.10;99.90
40589;DHT22;26297;49.450;6.640;2022-08-19T19:41:46;23.00;99.90
40589;DHT22;26297;49.450;6.640;2022-08-19T19:44:52;23.10;99.90
40589;DHT22;26297;49.450;6.640;2022-08-19T19:48:05;23.10;99.90
40589;DHT22;26297;49.450;6.640;2022-08-19T19:51:10;23.00;99.90
40589;DHT22;26297;49.450;6.640;2022-08-19T19:54:52;23.10;99.90
40589;DHT22;26297;49.450;6.640;2022-08-19T19:58:02;23.10;99.90
40589;DHT22;26297;49.450;6.640;2022-08-19T20:01:11;23.00;99.90
40589;DHT22;26297;49.450;6.640;2022-08-19T20:04:18;23.00;99.90
40589;DHT22;26297;49.450;6.640;2022-08-19T20:07:24;23.00;99.90
40589;DHT22;26297;49.450;6.640;2022-08-19T20:11:03;23.00;99.90
40589;DHT22;26297;49.450;6.640;2022-08-19T20:17:19;23.00;99.90
40589;DHT22;26297;49.450;6.640;2022-08-19T20:20:22;23.00;99.90
40589;DHT22;26297;49.450;6.640;2022-08-19T20:23:26;23.00;99.90
40589;DHT22;26297;49.450;6.640;2022-08-19T20:26:29;23.00;99.90
40589;DHT22;26297;49.450;6.640;2022-08-19T20:29:32;23.00;99.90
40589;DHT22;26297;49.450;6.640;2022-08-19T20:32:36;23.00;99.90
40589;DHT22;26297;49.450;6.640;2022-08-19T20:35:39;22.90;99.90
40589;DHT22;26297;49.450;6.640;2022-08-19T20:38:42;22.90;99.90
40589;DHT22;26297;49.450;6.640;2022-08-19T20:41:45;22.90;99.90
40589;DHT22;26297;49.450;6.640;2022-08-19T20:44:49;22.90;99.90
40589;DHT22;26297;49.450;6.640;2022-08-19T20:47:53;22.90;99.90
40589;DHT22;26297;49.450;6.640;2022-08-19T20:50:57;22.70;99.90
40589;DHT22;26297;49.450;6.640;2022-08-19T20:54:00;22.90;99.90
40589;DHT22;26297;49.450;6.640;2022-08-19T20:57:04;22.90;99.90
